createdAt,value
2019-01-02T00:00:01.495Z,76.43
2019-01-02T00:01:01.480Z,76.33
2019-01-02T00:02:01.467Z,76.95
2019-01-02T00:03:01.466Z,76.23
2019-01-02T00:04:01.445Z,76.54
2019-01-02T00:05:01.435Z,76.57
2019-01-02T00:06:01.426Z,76.75
2019-01-02T00:07:01.419Z,76.95
2019-01-02T00:08:01.412Z,76.57
2019-01-02T00:09:01.395Z,76.78
2019-01-02T00:10:01.428Z,76.64
2019-01-02T00:11:01.371Z,76.54
2019-01-02T00:12:01.359Z,76.26
2019-01-02T00:13:01.358Z,76.57
2019-01-02T00:14:01.350Z,76.43
2019-01-02T00:15:01.341Z,76.89
2019-01-02T00:16:01.316Z,76.78
2019-01-02T00:17:01.307Z,76.57
2019-01-02T00:18:01.304Z,76.26
2019-01-02T00:19:01.284Z,76.68
2019-01-02T00:20:01.274Z,77.20
2019-01-02T00:21:01.266Z,76.78
2019-01-02T00:22:01.251Z,76.78
2019-01-02T00:23:01.251Z,76.78
2019-01-02T00:24:01.230Z,76.57
2019-01-02T00:25:01.219Z,76.89
2019-01-02T00:26:01.209Z,76.99
2019-01-02T00:27:01.198Z,76.89
2019-01-02T00:28:01.220Z,76.57
2019-01-02T00:29:01.177Z,76.47
2019-01-02T00:30:01.168Z,76.57
2019-01-02T00:31:01.155Z,76.68
2019-01-02T00:32:01.149Z,76.78
2019-01-02T00:33:01.134Z,76.78
2019-01-02T00:34:01.134Z,76.68
2019-01-02T00:35:01.111Z,77.65
2019-01-02T00:36:01.102Z,76.99
2019-01-02T00:37:01.091Z,77.09
2019-01-02T00:38:01.079Z,76.99
2019-01-02T00:39:01.083Z,77.30
2019-01-02T00:40:01.063Z,77.13
2019-01-02T00:41:01.047Z,77.34
2019-01-02T00:42:01.041Z,77.13
2019-01-02T00:43:01.025Z,77.20
2019-01-02T00:44:01.024Z,76.82
2019-01-02T00:45:01.006Z,77.09
2019-01-02T00:46:00.993Z,77.20
2019-01-02T00:47:00.986Z,77.09
2019-01-02T00:48:00.971Z,76.68
2019-01-02T00:49:00.970Z,76.68
2019-01-02T00:50:00.952Z,76.78
2019-01-02T00:51:00.939Z,76.89
2019-01-02T00:52:00.934Z,77.30
2019-01-02T00:53:00.917Z,77.40
2019-01-02T00:54:00.946Z,76.89
2019-01-02T00:55:00.898Z,77.40
2019-01-02T00:56:02.241Z,77.55
2019-01-02T00:57:00.874Z,77.34
2019-01-02T00:58:00.864Z,77.30
2019-01-02T00:59:00.852Z,76.99
2019-01-02T01:00:00.850Z,77.20
2019-01-02T01:01:00.830Z,77.44
2019-01-02T01:02:00.820Z,77.44
2019-01-02T01:03:00.812Z,77.51
2019-01-02T01:04:00.798Z,77.65
2019-01-02T01:05:00.799Z,77.20
2019-01-02T01:06:00.776Z,77.61
2019-01-02T01:07:00.765Z,77.30
2019-01-02T01:08:00.754Z,77.51
2019-01-02T01:09:00.747Z,77.40
2019-01-02T01:10:00.741Z,77.55
2019-01-02T01:11:00.726Z,77.51
2019-01-02T01:12:00.711Z,77.61
2019-01-02T01:13:00.702Z,77.51
2019-01-02T01:14:00.689Z,77.51
2019-01-02T01:15:00.702Z,77.55
2019-01-02T01:16:00.667Z,77.44
2019-01-02T01:17:00.657Z,77.34
2019-01-02T01:18:00.647Z,77.51
2019-01-02T01:19:00.641Z,77.51
2019-01-02T01:20:00.635Z,77.20
2019-01-02T01:21:00.619Z,77.65
2019-01-02T01:22:00.606Z,77.55
2019-01-02T01:23:00.595Z,77.09
2019-01-02T01:24:00.583Z,77.55
2019-01-02T01:25:00.586Z,77.55
2019-01-02T01:26:00.562Z,77.51
2019-01-02T01:27:00.552Z,77.44
2019-01-02T01:28:00.540Z,77.55
2019-01-02T01:29:00.530Z,77.51
2019-01-02T01:30:00.527Z,77.44
2019-01-02T01:31:00.508Z,77.75
2019-01-02T01:32:00.502Z,77.03
2019-01-02T01:33:00.488Z,76.92
2019-01-02T01:34:00.476Z,77.55
2019-01-02T01:35:00.501Z,76.99
2019-01-02T01:36:00.455Z,77.30
2019-01-02T01:37:00.443Z,77.51
2019-01-02T01:38:00.433Z,76.99
2019-01-02T01:39:00.423Z,77.44
2019-01-02T01:40:00.417Z,77.55
2019-01-02T01:41:00.409Z,77.34
2019-01-02T01:42:00.391Z,77.23
2019-01-02T01:43:00.379Z,77.23
2019-01-02T01:44:00.368Z,77.23
2019-01-02T01:45:00.359Z,76.99
2019-01-02T01:46:00.358Z,76.72
2019-01-02T01:47:00.337Z,76.78
2019-01-02T01:48:00.327Z,76.47
2019-01-02T01:49:00.315Z,76.68
2019-01-02T01:50:00.314Z,76.61
2019-01-02T01:51:00.302Z,76.37
2019-01-02T01:52:00.282Z,76.16
2019-01-02T01:53:00.271Z,76.37
2019-01-02T01:54:00.265Z,76.78
2019-01-02T01:55:00.250Z,76.57
2019-01-02T01:56:00.249Z,76.61
2019-01-02T01:57:00.228Z,75.98
2019-01-02T01:58:00.218Z,76.82
2019-01-02T01:59:00.209Z,76.78
2019-01-02T02:00:00.242Z,76.78
2019-01-02T02:01:00.195Z,76.37
2019-01-02T02:02:00.176Z,75.43
2019-01-02T02:03:00.169Z,76.40
2019-01-02T02:04:00.157Z,76.06
2019-01-02T02:05:00.178Z,75.46
2019-01-02T02:06:00.142Z,75.98
2019-01-02T02:07:00.122Z,76.40
2019-01-02T02:08:00.168Z,76.61
2019-01-02T02:09:00.101Z,76.89
2019-01-02T02:10:00.161Z,76.61
2019-01-02T02:11:00.129Z,76.82
2019-01-02T02:12:00.069Z,76.82
2019-01-02T02:13:00.058Z,76.61
2019-01-02T02:14:00.048Z,76.82
2019-01-02T02:15:00.047Z,76.54
2019-01-02T02:16:00.024Z,76.72
2019-01-02T02:17:00.025Z,76.40
2019-01-02T02:18:00.003Z,76.40
2019-01-02T02:18:59.994Z,75.78
2019-01-02T02:19:59.986Z,76.09
2019-01-02T02:20:59.972Z,75.46
2019-01-02T02:21:59.972Z,76.06
2019-01-02T02:22:59.951Z,76.09
2019-01-02T02:23:59.938Z,76.06
2019-01-02T02:24:59.935Z,76.40
2019-01-02T02:25:59.917Z,76.72
2019-01-02T02:26:59.917Z,76.61
2019-01-02T02:27:59.902Z,76.61
2019-01-02T02:28:59.887Z,76.51
2019-01-02T02:29:59.874Z,76.51
2019-01-02T02:30:59.864Z,76.20
2019-01-02T02:31:59.864Z,76.09
2019-01-02T02:32:59.843Z,75.98
2019-01-02T02:33:59.833Z,76.40
2019-01-02T02:34:59.820Z,75.98
2019-01-02T02:35:59.809Z,76.61
2019-01-02T02:36:59.813Z,76.09
2019-01-02T02:37:59.789Z,75.88
2019-01-02T02:38:59.779Z,75.67
2019-01-02T02:39:59.766Z,75.78
2019-01-02T02:40:59.757Z,75.26
2019-01-02T02:41:59.753Z,75.98
2019-01-02T02:42:59.734Z,75.78
2019-01-02T02:43:59.727Z,75.98
2019-01-02T02:44:59.712Z,75.98
2019-01-02T02:45:59.701Z,75.88
2019-01-02T02:46:59.702Z,75.98
2019-01-02T02:47:59.682Z,75.36
2019-01-02T02:48:59.685Z,76.20
2019-01-02T02:49:59.658Z,76.09
2019-01-02T02:50:59.647Z,75.78
2019-01-02T02:51:59.645Z,75.85
2019-01-02T02:52:59.625Z,75.46
2019-01-02T02:53:59.623Z,75.26
2019-01-02T02:54:59.603Z,75.22
2019-01-02T02:55:59.595Z,75.22
2019-01-02T02:56:59.617Z,75.32
2019-01-02T02:57:59.576Z,75.22
2019-01-02T02:58:59.560Z,74.80
2019-01-02T02:59:59.549Z,74.91
2019-01-02T03:00:59.540Z,75.01
2019-01-02T03:01:59.530Z,74.91
2019-01-02T03:02:59.581Z,74.70
2019-01-02T03:03:59.506Z,74.70
2019-01-02T03:04:59.498Z,74.49
2019-01-02T03:05:59.486Z,74.70
2019-01-02T03:06:59.476Z,74.70
2019-01-02T03:07:59.473Z,74.80
2019-01-02T03:08:59.452Z,74.74
2019-01-02T03:09:59.441Z,74.70
2019-01-02T03:10:59.430Z,74.80
2019-01-02T03:11:59.419Z,74.91
2019-01-02T03:12:59.418Z,74.80
2019-01-02T03:13:59.398Z,74.80
2019-01-02T03:14:59.387Z,74.70
2019-01-02T03:15:59.376Z,74.57
2019-01-02T03:16:59.367Z,74.15
2019-01-02T03:17:59.364Z,73.97
2019-01-02T03:18:59.345Z,74.25
2019-01-02T03:19:59.334Z,73.63
2019-01-02T03:20:59.323Z,73.73
2019-01-02T03:21:59.312Z,73.73
2019-01-02T03:22:59.310Z,74.15
2019-01-02T03:23:59.290Z,73.63
2019-01-02T03:24:59.279Z,73.77
2019-01-02T03:25:59.269Z,73.42
2019-01-02T03:26:59.262Z,73.52
2019-01-02T03:27:59.256Z,73.63
2019-01-02T03:28:59.237Z,73.00
2019-01-02T03:29:59.229Z,73.00
2019-01-02T03:30:59.217Z,73.21
2019-01-02T03:31:59.208Z,73.21
2019-01-02T03:32:59.202Z,73.11
2019-01-02T03:33:59.183Z,72.76
2019-01-02T03:34:59.177Z,72.14
2019-01-02T03:35:59.165Z,72.76
2019-01-02T03:36:59.150Z,72.86
2019-01-02T03:37:59.189Z,72.55
2019-01-02T03:38:59.130Z,72.45
2019-01-02T03:39:59.121Z,71.93
2019-01-02T03:40:59.118Z,72.34
2019-01-02T03:41:59.101Z,71.51
2019-01-02T03:42:59.089Z,71.00
2019-01-02T03:43:59.090Z,71.00
2019-01-02T03:44:59.065Z,70.68
2019-01-02T03:45:59.054Z,71.00
2019-01-02T03:46:59.048Z,70.54
2019-01-02T03:47:59.034Z,70.65
2019-01-02T03:48:59.031Z,71.31
2019-01-02T03:49:59.011Z,70.68
2019-01-02T03:50:59.001Z,70.58
2019-01-02T03:51:58.992Z,69.74
2019-01-02T03:52:58.979Z,69.51
2019-01-02T03:53:58.981Z,69.74
2019-01-02T03:54:58.962Z,69.61
2019-01-02T03:55:58.946Z,68.88
2019-01-02T03:56:58.936Z,69.40
2019-01-02T03:57:58.924Z,69.51
2019-01-02T03:58:58.924Z,68.88
2019-01-02T03:59:58.905Z,69.20
2019-01-02T04:00:58.894Z,69.20
2019-01-02T04:01:58.888Z,69.20
2019-01-02T04:02:58.871Z,69.51
2019-01-02T04:03:58.871Z,70.13
2019-01-02T04:04:58.850Z,69.40
2019-01-02T04:05:58.840Z,69.09
2019-01-02T04:06:58.830Z,69.40
2019-01-02T04:07:58.821Z,69.20
2019-01-02T04:08:58.822Z,68.99
2019-01-02T04:09:58.799Z,68.99
2019-01-02T04:10:58.787Z,67.85
2019-01-02T04:11:58.776Z,68.16
2019-01-02T04:12:58.767Z,68.78
2019-01-02T04:13:58.810Z,68.05
2019-01-02T04:14:58.745Z,68.05
2019-01-02T04:15:58.737Z,67.33
2019-01-02T04:16:58.727Z,67.64
2019-01-02T04:17:58.713Z,67.22
2019-01-02T04:18:58.702Z,66.81
2019-01-02T04:19:58.700Z,67.12
2019-01-02T04:20:58.690Z,68.16
2019-01-02T04:21:58.688Z,68.16
2019-01-02T04:22:58.674Z,67.95
2019-01-02T04:23:58.657Z,67.95
2019-01-02T04:24:58.646Z,67.64
2019-01-02T04:25:58.627Z,67.74
2019-01-02T04:26:58.613Z,67.85
2019-01-02T04:27:58.606Z,66.91
2019-01-02T04:28:58.596Z,67.43
2019-01-02T04:29:58.593Z,66.60
2019-01-02T04:30:58.574Z,66.81
2019-01-02T04:31:58.563Z,67.33
2019-01-02T04:32:58.557Z,67.85
2019-01-02T04:33:58.547Z,67.95
2019-01-02T04:34:58.543Z,68.88
2019-01-02T04:35:58.520Z,69.40
2019-01-02T04:36:58.548Z,69.51
2019-01-02T04:37:58.508Z,69.51
2019-01-02T04:38:58.490Z,68.88
2019-01-02T04:39:58.491Z,69.43
2019-01-02T04:40:58.468Z,70.34
2019-01-02T04:41:58.465Z,71.31
2019-01-02T04:42:58.491Z,71.20
2019-01-02T04:43:58.435Z,71.86
2019-01-02T04:44:58.453Z,71.55
2019-01-02T04:45:58.415Z,71.97
2019-01-02T04:46:58.403Z,72.80
2019-01-02T04:47:58.392Z,72.76
2019-01-02T04:48:58.384Z,72.90
2019-01-02T04:49:58.371Z,72.80
2019-01-02T04:50:58.368Z,72.90
2019-01-02T04:51:58.358Z,73.52
2019-01-02T04:52:58.339Z,73.66
2019-01-02T04:53:58.329Z,73.21
2019-01-02T04:54:58.319Z,72.07
2019-01-02T04:55:58.316Z,72.20
2019-01-02T04:56:58.298Z,69.89
2019-01-02T04:57:58.285Z,68.95
2019-01-02T04:58:58.279Z,69.47
2019-01-02T04:59:58.269Z,68.43
2019-01-02T05:00:58.265Z,69.57
2019-01-02T05:01:58.246Z,68.84
2019-01-02T05:02:58.232Z,68.43
2019-01-02T05:03:58.221Z,67.67
2019-01-02T05:04:58.209Z,67.46
2019-01-02T05:05:58.209Z,66.84
2019-01-02T05:06:58.189Z,66.94
2019-01-02T05:07:58.179Z,66.84
2019-01-02T05:08:58.168Z,66.94
2019-01-02T05:09:58.157Z,67.05
2019-01-02T05:10:58.155Z,67.46
2019-01-02T05:11:58.138Z,67.88
2019-01-02T05:12:58.125Z,68.08
2019-01-02T05:13:58.114Z,68.50
2019-01-02T05:14:58.103Z,68.60
2019-01-02T05:15:58.129Z,68.91
2019-01-02T05:16:58.080Z,69.02
2019-01-02T05:17:58.074Z,69.64
2019-01-02T05:18:58.060Z,69.54
2019-01-02T05:19:58.052Z,69.74
2019-01-02T05:20:58.039Z,69.89
2019-01-02T05:21:58.037Z,69.68
2019-01-02T05:22:58.017Z,69.68
2019-01-02T05:23:58.011Z,69.89
2019-01-02T05:24:57.996Z,69.54
2019-01-02T05:25:57.986Z,69.47
2019-01-02T05:26:57.983Z,69.12
2019-01-02T05:27:57.963Z,69.12
2019-01-02T05:28:57.954Z,68.81
2019-01-02T05:29:57.946Z,68.91
2019-01-02T05:30:57.932Z,68.50
2019-01-02T05:31:57.930Z,68.60
2019-01-02T05:32:57.910Z,68.91
2019-01-02T05:33:57.900Z,68.50
2019-01-02T05:34:57.889Z,68.60
2019-01-02T05:35:57.877Z,69.02
2019-01-02T05:36:57.876Z,69.96
2019-01-02T05:37:57.857Z,69.85
2019-01-02T05:38:57.847Z,70.51
2019-01-02T05:39:57.842Z,70.48
2019-01-02T05:40:57.824Z,70.06
2019-01-02T05:41:57.842Z,69.47
2019-01-02T05:42:57.803Z,70.09
2019-01-02T05:43:57.793Z,69.54
2019-01-02T05:44:57.782Z,70.61
2019-01-02T05:45:57.772Z,69.85
2019-01-02T05:46:57.760Z,69.64
2019-01-02T05:47:57.765Z,69.37
2019-01-02T05:48:57.739Z,69.26
2019-01-02T05:49:57.728Z,69.57
2019-01-02T05:50:57.718Z,70.40
2019-01-02T05:51:57.707Z,69.23
2019-01-02T05:52:57.706Z,69.33
2019-01-02T05:53:57.734Z,69.05
2019-01-02T05:54:57.678Z,68.50
2019-01-02T05:55:57.667Z,68.71
2019-01-02T05:56:57.655Z,69.12
2019-01-02T05:57:57.652Z,69.23
2019-01-02T05:58:57.634Z,69.33
2019-01-02T05:59:57.623Z,67.98
2019-01-02T06:00:57.612Z,68.40
2019-01-02T06:01:57.610Z,66.42
2019-01-02T06:02:57.601Z,67.05
2019-01-02T06:03:57.580Z,66.42
2019-01-02T06:04:57.587Z,66.21
2019-01-02T06:05:57.558Z,66.00
2019-01-02T06:06:57.550Z,65.07
2019-01-02T06:07:57.550Z,64.45
2019-01-02T06:08:57.527Z,65.14
2019-01-02T06:09:57.516Z,64.24
2019-01-02T06:10:57.508Z,65.35
2019-01-02T06:11:57.496Z,63.72
2019-01-02T06:12:57.493Z,61.95
2019-01-02T06:13:57.474Z,62.13
2019-01-02T06:14:57.464Z,60.78
2019-01-02T06:15:57.454Z,61.09
2019-01-02T06:16:57.442Z,60.16
2019-01-02T06:17:57.440Z,60.13
2019-01-02T06:18:57.420Z,60.05
2019-01-02T06:19:57.409Z,60.57
2019-01-02T06:20:57.401Z,59.92
2019-01-02T06:21:57.389Z,60.99
2019-01-02T06:22:57.684Z,61.40
2019-01-02T06:23:57.370Z,59.43
2019-01-02T06:24:57.357Z,60.05
2019-01-02T06:25:57.347Z,60.05
2019-01-02T06:26:57.339Z,60.05
2019-01-02T06:27:57.325Z,60.16
2019-01-02T06:28:57.328Z,60.05
2019-01-02T06:29:57.304Z,61.19
2019-01-02T06:30:57.294Z,61.51
2019-01-02T06:31:57.283Z,60.36
2019-01-02T06:32:57.271Z,60.16
2019-01-02T06:33:57.270Z,60.36
2019-01-02T06:34:57.251Z,60.99
2019-01-02T06:35:57.241Z,60.05
2019-01-02T06:36:57.231Z,59.95
2019-01-02T06:37:57.249Z,60.88
2019-01-02T06:38:57.217Z,60.16
2019-01-02T06:39:57.199Z,60.57
2019-01-02T06:40:57.187Z,60.57
2019-01-02T06:41:57.176Z,60.88
2019-01-02T06:42:57.166Z,60.26
2019-01-02T06:43:57.163Z,60.78
2019-01-02T06:44:57.143Z,60.50
2019-01-02T06:45:57.134Z,61.40
2019-01-02T06:46:57.123Z,62.13
2019-01-02T06:47:57.113Z,63.07
2019-01-02T06:48:57.150Z,62.26
2019-01-02T06:49:57.090Z,61.74
2019-01-02T06:50:57.080Z,63.20
2019-01-02T06:51:57.073Z,63.72
2019-01-02T06:52:57.060Z,63.20
2019-01-02T06:53:57.066Z,63.82
2019-01-02T06:54:57.047Z,63.20
2019-01-02T06:55:57.025Z,63.31
2019-01-02T06:56:57.018Z,62.88
2019-01-02T06:57:57.005Z,63.31
2019-01-02T06:58:56.995Z,63.41
2019-01-02T06:59:56.992Z,63.33
2019-01-02T07:00:56.972Z,63.75
2019-01-02T07:01:56.961Z,63.93
2019-01-02T07:02:56.954Z,63.62
2019-01-02T07:03:56.940Z,64.06
2019-01-02T07:04:56.939Z,63.31
2019-01-02T07:05:56.919Z,63.02
2019-01-02T07:06:56.908Z,63.41
2019-01-02T07:07:56.897Z,63.20
2019-01-02T07:08:56.889Z,63.31
2019-01-02T07:09:56.884Z,63.20
2019-01-02T07:10:56.916Z,63.31
2019-01-02T07:11:56.854Z,63.51
2019-01-02T07:12:56.851Z,63.82
2019-01-02T07:13:56.833Z,63.72
2019-01-02T07:14:56.834Z,64.14
2019-01-02T07:15:56.810Z,64.24
2019-01-02T07:16:58.021Z,64.24
2019-01-02T07:17:56.789Z,65.38
2019-01-02T07:18:56.779Z,65.07
2019-01-02T07:19:56.777Z,65.52
2019-01-02T07:20:56.760Z,65.20
2019-01-02T07:21:56.749Z,64.79
2019-01-02T07:22:56.735Z,65.00
2019-01-02T07:23:56.724Z,65.10
2019-01-02T07:24:56.749Z,66.35
2019-01-02T07:25:56.704Z,65.52
2019-01-02T07:26:56.692Z,66.24
2019-01-02T07:27:56.682Z,67.18
2019-01-02T07:28:56.671Z,67.73
2019-01-02T07:29:56.660Z,68.88
2019-01-02T07:30:56.658Z,69.50
2019-01-02T07:31:56.639Z,71.06
2019-01-02T07:32:57.605Z,72.00
2019-01-02T07:33:56.617Z,72.34
2019-01-02T07:34:56.610Z,73.59
2019-01-02T07:35:56.603Z,73.69
2019-01-02T07:36:56.586Z,74.04
2019-01-02T07:37:56.578Z,74.56
2019-01-02T07:38:56.564Z,73.94
2019-01-02T07:39:56.553Z,74.77
2019-01-02T07:40:56.550Z,75.09
2019-01-02T07:41:56.531Z,74.66
2019-01-02T07:42:56.520Z,74.15
2019-01-02T07:43:56.510Z,71.75
2019-01-02T07:44:56.499Z,71.23
2019-01-02T07:45:56.498Z,70.99
2019-01-02T07:46:56.481Z,71.72
2019-01-02T07:47:56.467Z,71.41
2019-01-02T07:48:56.456Z,69.19
2019-01-02T07:49:56.448Z,69.29
2019-01-02T07:51:00.276Z,68.25
2019-01-02T07:51:56.427Z,68.15
2019-01-02T07:52:56.414Z,67.42
2019-01-02T07:53:56.401Z,65.31
2019-01-02T07:54:56.391Z,66.14
2019-01-02T07:55:56.388Z,66.14
2019-01-02T07:56:56.370Z,63.54
2019-01-02T07:57:56.359Z,65.10
2019-01-02T07:58:56.348Z,64.89
2019-01-02T07:59:56.337Z,64.58
2019-01-02T08:00:56.335Z,63.54
2019-01-02T08:01:56.315Z,63.23
2019-01-02T08:02:56.317Z,63.33
2019-01-02T08:03:56.294Z,61.74
2019-01-02T08:04:56.285Z,62.26
2019-01-02T08:05:56.307Z,61.02
2019-01-02T08:06:56.261Z,62.05
2019-01-02T08:07:56.349Z,60.60
2019-01-02T08:08:56.240Z,61.95
2019-01-02T08:09:56.231Z,61.95
2019-01-02T08:10:56.220Z,62.16
2019-01-02T08:11:56.216Z,62.37
2019-01-02T08:12:56.196Z,62.05
2019-01-02T08:13:56.186Z,62.05
2019-01-02T08:15:02.850Z,62.26
2019-01-02T08:15:57.163Z,63.43
2019-01-02T08:16:56.164Z,63.85
2019-01-02T08:17:56.142Z,63.96
2019-01-02T08:18:56.132Z,64.17
2019-01-02T08:19:56.123Z,64.27
2019-01-02T08:20:56.113Z,63.64
2019-01-02T08:21:56.109Z,63.54
2019-01-02T08:22:56.089Z,64.17
2019-01-02T08:23:56.078Z,64.06
2019-01-02T08:24:56.081Z,64.69
2019-01-02T08:25:56.057Z,65.72
2019-01-02T08:26:56.054Z,66.35
2019-01-02T08:27:56.035Z,66.45
2019-01-02T08:28:56.023Z,67.39
2019-01-02T08:29:56.015Z,68.53
2019-01-02T08:30:56.003Z,69.29
2019-01-02T08:31:56.001Z,70.43
2019-01-02T08:32:55.983Z,71.79
2019-01-02T08:33:55.971Z,72.76
2019-01-02T08:34:55.962Z,73.28
2019-01-02T08:35:55.948Z,74.21
2019-01-02T08:36:55.951Z,76.65
2019-01-02T08:37:55.927Z,78.24
2019-01-02T08:38:55.920Z,78.42
2019-01-02T08:39:55.906Z,79.60
2019-01-02T08:40:55.897Z,80.95
2019-01-02T08:41:55.895Z,81.09
2019-01-02T08:42:55.874Z,81.96
2019-01-02T08:43:55.864Z,82.03
2019-01-02T08:44:55.855Z,83.07
2019-01-02T08:45:55.842Z,82.80
2019-01-02T08:46:55.839Z,83.53
2019-01-02T08:47:55.821Z,83.32
2019-01-02T08:48:55.809Z,84.16
2019-01-02T08:49:55.798Z,84.61
2019-01-02T08:50:55.787Z,85.17
2019-01-02T08:51:55.785Z,86.32
2019-01-02T08:52:55.765Z,86.38
2019-01-02T08:53:55.757Z,86.32
2019-01-02T08:54:55.744Z,85.59
2019-01-02T08:55:55.736Z,84.34
2019-01-02T08:56:55.722Z,85.17
2019-01-02T08:57:55.726Z,85.27
2019-01-02T08:58:55.703Z,85.49
2019-01-02T08:59:55.689Z,85.83
2019-01-02T09:00:55.678Z,86.05
2019-01-02T09:01:55.669Z,88.59
2019-01-02T09:02:55.666Z,89.53
2019-01-02T09:03:55.648Z,90.06
2019-01-02T09:04:55.639Z,89.95
2019-01-02T09:05:55.627Z,89.43
2019-01-02T09:06:55.615Z,89.53
2019-01-02T09:07:55.618Z,89.01
2019-01-02T09:08:55.593Z,88.39
2019-01-02T09:09:55.589Z,87.13
2019-01-02T09:10:55.573Z,86.57
2019-01-02T09:11:55.564Z,86.25
2019-01-02T09:12:55.559Z,86.15
2019-01-02T09:13:55.544Z,86.67
2019-01-02T09:14:55.530Z,85.83
2019-01-02T09:15:55.521Z,86.15
2019-01-02T09:16:55.510Z,85.38
2019-01-02T09:17:55.513Z,85.27
2019-01-02T09:18:55.490Z,84.65
2019-01-02T09:19:55.486Z,84.34
2019-01-02T09:20:55.467Z,83.08
2019-01-02T09:21:55.455Z,81.41
2019-01-02T09:22:55.455Z,82.25
2019-01-02T09:23:55.439Z,81.41
2019-01-02T09:24:55.428Z,81.83
2019-01-02T09:25:55.414Z,81.52
2019-01-02T09:26:55.402Z,81.31
2019-01-02T09:27:55.403Z,81.62
2019-01-02T09:28:55.387Z,81.31
2019-01-02T09:29:55.375Z,80.79
2019-01-02T09:30:55.360Z,81.62
2019-01-02T09:31:55.351Z,81.48
2019-01-02T09:32:55.348Z,81.59
2019-01-02T09:33:55.329Z,81.16
2019-01-02T09:34:55.323Z,82.00
2019-01-02T09:35:55.367Z,81.59
2019-01-02T09:36:55.299Z,82.00
2019-01-02T09:37:55.298Z,81.38
2019-01-02T09:38:55.277Z,81.59
2019-01-02T09:39:55.269Z,82.10
2019-01-02T09:40:55.258Z,83.04
2019-01-02T09:41:55.250Z,82.94
2019-01-02T09:42:55.277Z,82.84
2019-01-02T09:43:55.224Z,82.94
2019-01-02T09:44:55.213Z,83.04
2019-01-02T09:45:55.205Z,83.67
2019-01-02T09:46:55.191Z,83.57
2019-01-02T09:47:55.244Z,84.30
2019-01-02T09:48:55.178Z,83.25
2019-01-02T09:49:55.159Z,83.15
2019-01-02T09:50:55.151Z,83.25
2019-01-02T09:51:55.142Z,83.78
2019-01-02T09:52:55.129Z,83.67
2019-01-02T09:53:55.126Z,83.88
2019-01-02T09:55:01.216Z,83.67
2019-01-02T09:55:56.098Z,83.67
2019-01-02T09:56:55.084Z,83.98
2019-01-02T09:57:55.075Z,84.50
2019-01-02T09:58:55.072Z,83.67
2019-01-02T09:59:55.057Z,83.67
2019-01-02T10:00:55.046Z,84.09
2019-01-02T10:01:55.031Z,84.09
2019-01-02T10:02:55.020Z,84.40
2019-01-02T10:03:55.056Z,84.40
2019-01-02T10:04:55.004Z,84.47
2019-01-02T10:05:54.988Z,83.88
2019-01-02T10:06:54.983Z,85.30
2019-01-02T10:07:54.967Z,84.05
2019-01-02T10:08:54.959Z,83.84
2019-01-02T10:09:54.962Z,83.78
2019-01-02T10:10:54.943Z,83.95
2019-01-02T10:11:54.925Z,83.32
2019-01-02T10:12:54.914Z,84.26
2019-01-02T10:13:54.904Z,84.47
2019-01-02T10:14:54.905Z,84.36
2019-01-02T10:15:54.882Z,85.51
2019-01-02T10:16:54.882Z,84.47
2019-01-02T10:17:54.862Z,85.58
2019-01-02T10:18:54.851Z,85.05
2019-01-02T10:19:54.849Z,83.63
2019-01-02T10:20:54.828Z,83.80
2019-01-02T10:21:54.820Z,84.12
2019-01-02T10:22:54.807Z,84.12
2019-01-02T10:23:54.797Z,84.33
2019-01-02T10:24:54.795Z,83.18
2019-01-02T10:25:54.776Z,83.59
2019-01-02T10:26:54.766Z,84.43
2019-01-02T10:27:54.758Z,84.12
2019-01-02T10:28:54.744Z,83.56
2019-01-02T10:29:54.744Z,83.59
2019-01-02T10:30:54.723Z,83.25
2019-01-02T10:31:54.713Z,83.18
2019-01-02T10:32:54.699Z,83.25
2019-01-02T10:33:54.688Z,83.66
2019-01-02T10:34:54.688Z,82.93
2019-01-02T10:35:54.673Z,82.93
2019-01-02T10:36:54.661Z,82.82
2019-01-02T10:37:54.651Z,81.26
2019-01-02T10:38:54.635Z,81.58
2019-01-02T10:39:54.637Z,82.10
2019-01-02T10:40:54.614Z,81.79
2019-01-02T10:41:54.604Z,81.68
2019-01-02T10:42:54.594Z,80.26
2019-01-02T10:43:54.582Z,81.51
2019-01-02T10:44:54.608Z,81.68
2019-01-02T10:45:54.560Z,80.85
2019-01-02T10:46:54.551Z,80.12
2019-01-02T10:47:54.540Z,79.91
2019-01-02T10:48:54.547Z,79.91
2019-01-02T10:49:54.520Z,80.22
2019-01-02T10:50:54.518Z,79.60
2019-01-02T10:51:54.496Z,78.66
2019-01-02T10:52:54.485Z,77.72
2019-01-02T10:53:54.477Z,78.87
2019-01-02T10:54:54.464Z,78.14
2019-01-02T10:55:54.461Z,80.12
2019-01-02T10:56:54.441Z,78.34
2019-01-02T10:57:54.432Z,76.57
2019-01-02T10:58:54.432Z,76.68
2019-01-02T10:59:54.409Z,76.78
2019-01-02T11:00:54.425Z,76.37
2019-01-02T11:01:54.389Z,75.12
2019-01-02T11:02:54.383Z,75.29
2019-01-02T11:03:54.373Z,74.70
2019-01-02T11:04:54.362Z,75.01
2019-01-02T11:05:54.344Z,75.09
2019-01-02T11:06:54.356Z,75.53
2019-01-02T11:07:54.322Z,75.40
2019-01-02T11:08:54.327Z,74.87
2019-01-02T11:09:54.301Z,75.32
2019-01-02T11:10:54.290Z,75.40
2019-01-02T11:11:54.288Z,74.15
2019-01-02T11:12:54.279Z,73.21
2019-01-02T11:13:54.257Z,72.79
2019-01-02T11:14:54.248Z,72.58
2019-01-02T11:15:54.257Z,72.48
2019-01-02T11:16:54.238Z,73.00
2019-01-02T11:17:54.215Z,71.51
2019-01-02T11:18:54.204Z,71.30
2019-01-02T11:19:54.195Z,69.87
2019-01-02T11:20:54.195Z,69.32
2019-01-02T11:21:54.188Z,69.12
2019-01-02T11:22:54.161Z,67.45
2019-01-02T11:23:54.149Z,68.07
2019-01-02T11:24:54.138Z,67.35
2019-01-02T11:25:54.132Z,66.90
2019-01-02T11:26:54.129Z,65.96
2019-01-02T11:27:54.109Z,65.23
2019-01-02T11:28:54.097Z,64.51
2019-01-02T11:29:54.086Z,64.29
2019-01-02T11:30:54.075Z,65.34
2019-01-02T11:31:54.074Z,64.92
2019-01-02T11:32:54.054Z,63.26
2019-01-02T11:33:54.047Z,63.57
2019-01-02T11:34:54.031Z,64.19
2019-01-02T11:35:54.021Z,62.11
2019-01-02T11:36:54.093Z,60.73
2019-01-02T11:37:54.030Z,62.32
2019-01-02T11:38:54.006Z,61.25
2019-01-02T11:39:53.979Z,60.73
2019-01-02T11:40:53.967Z,58.23
2019-01-02T11:41:53.967Z,57.61
2019-01-02T11:42:53.948Z,56.47
2019-01-02T11:43:53.943Z,57.82
2019-01-02T11:44:53.925Z,57.61
2019-01-02T11:45:53.916Z,56.05
2019-01-02T11:46:53.912Z,55.63
2019-01-02T11:47:53.892Z,56.78
2019-01-02T11:48:53.890Z,56.26
2019-01-02T11:49:53.873Z,57.30
2019-01-02T11:50:53.861Z,55.95
2019-01-02T11:51:53.886Z,55.63
2019-01-02T11:52:53.839Z,54.41
2019-01-02T11:53:53.833Z,54.18
2019-01-02T11:54:53.819Z,54.28
2019-01-02T11:55:53.809Z,56.26
2019-01-02T11:56:53.801Z,55.77
2019-01-02T11:57:53.795Z,55.04
2019-01-02T11:58:53.775Z,55.98
2019-01-02T11:59:53.766Z,54.93
2019-01-02T12:00:53.755Z,52.75
2019-01-02T12:01:53.744Z,55.84
2019-01-02T12:02:53.740Z,54.00
2019-01-02T12:03:53.725Z,52.85
2019-01-02T12:04:53.712Z,54.18
2019-01-02T12:05:53.700Z,52.33
2019-01-02T12:06:53.691Z,51.68
2019-01-02T12:07:53.690Z,52.02
2019-01-02T12:08:53.676Z,54.49
2019-01-02T12:09:53.658Z,52.51
2019-01-02T12:10:53.647Z,54.39
2019-01-02T12:11:53.639Z,52.12
2019-01-02T12:12:53.674Z,54.08
2019-01-02T12:13:53.619Z,53.89
2019-01-02T12:14:53.605Z,51.58
2019-01-02T12:15:53.595Z,52.85
2019-01-02T12:16:53.587Z,54.39
2019-01-02T12:17:53.579Z,55.01
2019-01-02T12:18:53.578Z,54.60
2019-01-02T12:19:53.553Z,54.60
2019-01-02T12:20:53.544Z,54.70
2019-01-02T12:21:53.537Z,55.63
2019-01-02T12:22:53.521Z,53.87
2019-01-02T12:23:53.519Z,52.72
2019-01-02T12:24:53.500Z,52.72
2019-01-02T12:25:53.490Z,53.74
2019-01-02T12:26:53.479Z,52.70
2019-01-02T12:27:53.467Z,52.39
2019-01-02T12:28:53.464Z,49.08
2019-01-02T12:29:53.447Z,50.23
2019-01-02T12:30:53.436Z,50.23
2019-01-02T12:31:53.430Z,49.81
2019-01-02T12:32:53.414Z,50.00
2019-01-02T12:33:53.414Z,52.20
2019-01-02T12:34:53.394Z,48.46
2019-01-02T12:35:53.384Z,49.50
2019-01-02T12:36:53.373Z,49.08
2019-01-02T12:37:53.361Z,49.91
2019-01-02T12:38:53.380Z,48.25
2019-01-02T12:39:53.338Z,48.48
2019-01-02T12:40:53.329Z,48.88
2019-01-02T12:41:53.321Z,49.11
2019-01-02T12:42:53.309Z,48.67
2019-01-02T12:43:53.299Z,47.73
2019-01-02T12:44:53.323Z,48.48
2019-01-02T12:45:53.274Z,47.73
2019-01-02T12:46:53.264Z,47.96
2019-01-02T12:47:53.255Z,49.42
2019-01-02T12:48:53.245Z,50.33
2019-01-02T12:49:53.243Z,51.06
2019-01-02T12:50:53.225Z,50.43
2019-01-02T12:51:53.211Z,50.65